Time;durP1;ratioP1;P1;durP2;ratioP2;P2;SDS_P1;SDS_P2;PMS_P1;PMS_P2;Temp;Humidity;BMP_temperature;BMP_pressure;BME280_temperature;BME280_humidity;BME280_pressure;Samples;Min_cycle;Max_cycle;Signal;HPM_P1;HPM_P2
2022/01/27 00:05:20;;;;;;;58.95;26.55;;;;;;;;;;5058337;28;20486;-63
2022/01/27 00:08:02;;;;;;;64.05;27.88;;;;;;;;;;5071219;28;20120;-64
2022/01/27 00:10:47;;;;;;;59.00;26.45;;;;;;;;;;5070435;28;20047;-63
2022/01/27 00:13:16;;;;;;;60.85;28.00;;;;;;;;;;5068362;28;20040;-64
2022/01/27 00:15:44;;;;;;;59.10;25.63;;;;;;;;;;5066682;28;20098;-64
2022/01/27 00:18:16;;;;;;;61.55;27.75;;;;;;;;;;5059586;28;20124;-64
2022/01/27 00:20:42;;;;;;;48.58;21.02;;;;;;;;;;5067336;28;20512;-64
2022/01/27 00:23:08;;;;;;;54.53;25.25;;;;;;;;;;5066554;28;20486;-63
2022/01/27 00:25:34;;;;;;;56.50;25.83;;;;;;;;;;5074331;28;20036;-63
2022/01/27 00:28:00;;;;;;;61.00;26.40;;;;;;;;;;5071052;28;20072;-64
2022/01/27 00:30:26;;;;;;;64.30;27.20;;;;;;;;;;5068060;28;20120;-64
2022/01/27 00:32:52;;;;;;;51.50;24.90;;;;;;;;;;5073864;28;20032;-65
2022/01/27 00:35:18;;;;;;;55.78;25.75;;;;;;;;;;5073994;28;20043;-65
2022/01/27 00:37:44;;;;;;;59.95;24.88;;;;;;;;;;5073829;28;20037;-64
2022/01/27 00:40:12;;;;;;;48.72;22.33;;;;;;;;;;5073580;28;20089;-64
2022/01/27 00:42:38;;;;;;;56.63;25.10;;;;;;;;;;5056795;28;20046;-64
2022/01/27 00:45:05;;;;;;;59.33;26.67;;;;;;;;;;5071673;28;20074;-63
2022/01/27 00:47:31;;;;;;;56.65;26.13;;;;;;;;;;5074474;28;20040;-64
2022/01/27 00:49:57;;;;;;;58.10;26.25;;;;;;;;;;5074212;28;20547;-64
2022/01/27 00:52:31;;;;;;;55.55;25.17;;;;;;;;;;5073456;28;20048;-64
2022/01/27 00:54:57;;;;;;;56.70;25.02;;;;;;;;;;5064881;28;20048;-64
2022/01/27 00:57:38;;;;;;;52.25;25.98;;;;;;;;;;5061693;28;20040;-64
2022/01/27 01:00:04;;;;;;;;;;;;;;;;;;5054958;28;20078;-64
2022/01/27 01:05:55;;;;;;;54.42;24.65;;;;;;;;;;5073218;28;20044;-64
2022/01/27 01:09:03;;;;;;;55.50;26.25;;;;;;;;;;5067735;28;20691;-64
2022/01/27 01:14:23;;;;;;;53.55;25.38;;;;;;;;;;5067098;28;20395;-63
2022/01/27 01:30:32;;;;;;;51.42;24.25;;;;;;;;;;5055868;28;20087;-63
2022/01/27 01:32:58;;;;;;;50.17;25.45;;;;;;;;;;5062596;28;20047;-63
2022/01/27 01:35:39;;;;;;;51.50;24.25;;;;;;;;;;5068179;28;20040;-63
2022/01/27 01:38:06;;;;;;;47.92;23.60;;;;;;;;;;5072355;28;20579;-63
2022/01/27 01:40:32;;;;;;;53.17;24.10;;;;;;;;;;5108079;22;20066;-64
2022/01/27 01:42:58;;;;;;;50.72;22.67;;;;;;;;;;5107751;28;20064;-64
2022/01/27 01:45:25;;;;;;;52.03;24.63;;;;;;;;;;5106040;28;20039;-64
2022/01/27 01:47:51;;;;;;;45.20;21.60;;;;;;;;;;5113578;27;20180;-64
2022/01/27 01:50:18;;;;;;;48.67;23.88;;;;;;;;;;5113421;28;20493;-64
2022/01/27 01:52:44;;;;;;;47.72;23.00;;;;;;;;;;5106293;28;20044;-64
2022/01/27 01:55:10;;;;;;;49.97;22.48;;;;;;;;;;5096235;28;20038;-65
2022/01/27 01:57:36;;;;;;;46.25;22.35;;;;;;;;;;5082666;28;20044;-65
2022/01/27 02:00:04;;;;;;;42.40;21.30;;;;;;;;;;5093029;28;20032;-66
2022/01/27 02:02:30;;;;;;;44.28;21.35;;;;;;;;;;5089994;28;20047;-65
2022/01/27 02:04:56;;;;;;;42.75;20.38;;;;;;;;;;5089837;28;20032;-65
2022/01/27 02:07:35;;;;;;;40.65;20.65;;;;;;;;;;5095456;28;20046;-65
2022/01/27 02:10:11;;;;;;;44.92;21.58;;;;;;;;;;5083013;28;20119;-66
2022/01/27 02:18:08;;;;;;;43.17;21.77;;;;;;;;;;5090329;28;20059;-66
2022/01/27 02:20:35;;;;;;;46.60;21.67;;;;;;;;;;5090336;28;20094;-65
2022/01/27 02:23:03;;;;;;;44.25;22.55;;;;;;;;;;5103906;28;20069;-65
2022/01/27 02:25:29;;;;;;;43.78;20.33;;;;;;;;;;5099580;28;20028;-66
2022/01/27 02:27:55;;;;;;;45.38;22.27;;;;;;;;;;5092613;28;20051;-66
2022/01/27 02:30:22;;;;;;;49.78;24.10;;;;;;;;;;5094554;28;20040;-66
2022/01/27 02:32:52;;;;;;;49.08;22.48;;;;;;;;;;5106403;28;20046;-66
2022/01/27 02:35:18;;;;;;;44.83;20.75;;;;;;;;;;5092072;28;20413;-66
2022/01/27 02:37:44;;;;;;;42.63;21.02;;;;;;;;;;5092092;28;20055;-66
2022/01/27 02:40:12;;;;;;;46.45;23.15;;;;;;;;;;5100272;28;20036;-66
2022/01/27 02:42:38;;;;;;;48.58;24.00;;;;;;;;;;5092362;28;20040;-66
2022/01/27 02:45:04;;;;;;;42.08;20.42;;;;;;;;;;5092055;28;20074;-66
2022/01/27 02:47:31;;;;;;;46.33;22.15;;;;;;;;;;5091857;28;20425;-66
2022/01/27 02:49:57;;;;;;;45.55;22.15;;;;;;;;;;5091940;28;20549;-66
2022/01/27 02:52:23;;;;;;;48.20;22.27;;;;;;;;;;5110984;28;20069;-66
2022/01/27 02:54:49;;;;;;;44.65;20.05;;;;;;;;;;5112405;28;20039;-66
2022/01/27 02:57:15;;;;;;;44.30;22.75;;;;;;;;;;5108531;28;20032;-66
2022/01/27 02:59:41;;;;;;;49.72;23.25;;;;;;;;;;5092323;28;20044;-66
2022/01/27 03:02:07;;;;;;;47.55;22.05;;;;;;;;;;5088170;28;20039;-65
2022/01/27 03:04:34;;;;;;;46.00;22.52;;;;;;;;;;5091342;28;20144;-66
2022/01/27 03:07:02;;;;;;;45.70;21.23;;;;;;;;;;5090649;28;20040;-66
2022/01/27 03:09:28;;;;;;;47.15;23.17;;;;;;;;;;5091934;28;20040;-66
2022/01/27 03:11:59;;;;;;;46.15;23.20;;;;;;;;;;5102868;28;20039;-66
2022/01/27 03:14:25;;;;;;;50.70;22.83;;;;;;;;;;5091682;28;20071;-66
2022/01/27 03:16:54;;;;;;;47.03;23.10;;;;;;;;;;5090683;28;20048;-66
2022/01/27 03:19:20;;;;;;;48.33;21.83;;;;;;;;;;5098599;28;20032;-66
2022/01/27 03:21:46;;;;;;;47.90;21.35;;;;;;;;;;5088763;28;20028;-66
2022/01/27 03:24:12;;;;;;;50.88;24.10;;;;;;;;;;5091886;28;20039;-66
2022/01/27 03:26:40;;;;;;;40.88;17.30;;;;;;;;;;5089904;28;20036;-66
2022/01/27 03:29:06;;;;;;;43.92;19.90;;;;;;;;;;5092345;28;20405;-65
2022/01/27 03:31:32;;;;;;;44.17;21.67;;;;;;;;;;5091273;28;20048;-65
2022/01/27 03:33:58;;;;;;;42.58;20.73;;;;;;;;;;5092068;28;20406;-66
2022/01/27 03:36:25;;;;;;;49.38;22.33;;;;;;;;;;5091233;28;20044;-66
2022/01/27 03:38:51;;;;;;;45.67;22.00;;;;;;;;;;5094005;28;20055;-66
2022/01/27 03:41:20;;;;;;;40.42;18.10;;;;;;;;;;5111808;28;20043;-66
2022/01/27 03:43:46;;;;;;;50.08;22.60;;;;;;;;;;5112103;28;20307;-66
2022/01/27 03:46:13;;;;;;;47.83;21.90;;;;;;;;;;5094869;28;20119;-66
2022/01/27 03:48:38;;;;;;;48.60;22.50;;;;;;;;;;5091964;28;20392;-66
2022/01/27 03:51:05;;;;;;;43.80;21.42;;;;;;;;;;5106500;28;20036;-66
2022/01/27 03:53:31;;;;;;;44.60;17.52;;;;;;;;;;5095686;28;20044;-66
2022/01/27 03:55:57;;;;;;;45.38;19.73;;;;;;;;;;5095021;28;20409;-66
2022/01/27 03:58:23;;;;;;;44.90;21.60;;;;;;;;;;5095415;28;20043;-66
2022/01/27 04:00:49;;;;;;;42.67;19.13;;;;;;;;;;5098073;28;20093;-66
2022/01/27 04:03:17;;;;;;;47.90;22.92;;;;;;;;;;5095696;28;20127;-66
2022/01/27 04:05:45;;;;;;;53.38;22.13;;;;;;;;;;5095006;28;20478;-66
2022/01/27 04:08:12;;;;;;;46.50;22.52;;;;;;;;;;5096308;28;20094;-66
2022/01/27 04:10:39;;;;;;;46.72;22.25;;;;;;;;;;5109431;28;20509;-66
2022/01/27 04:13:05;;;;;;;46.38;22.90;;;;;;;;;;5115367;28;20078;-66
2022/01/27 04:15:31;;;;;;;45.38;21.88;;;;;;;;;;5100429;28;20062;-66
2022/01/27 04:17:57;;;;;;;46.70;18.65;;;;;;;;;;5103319;28;20035;-66
2022/01/27 04:20:23;;;;;;;49.70;22.88;;;;;;;;;;5100496;28;20086;-66
2022/01/27 04:22:49;;;;;;;50.25;22.98;;;;;;;;;;5113099;28;20039;-66
2022/01/27 04:25:15;;;;;;;50.05;22.45;;;;;;;;;;5115038;28;20400;-66
2022/01/27 04:27:46;;;;;;;46.72;22.90;;;;;;;;;;5115065;28;20504;-66
2022/01/27 04:30:17;;;;;;;46.83;21.88;;;;;;;;;;5112436;28;20054;-66
2022/01/27 04:32:51;;;;;;;46.28;21.92;;;;;;;;;;5114688;28;20062;-66
2022/01/27 04:35:19;;;;;;;47.40;21.17;;;;;;;;;;5111717;28;20128;-66
2022/01/27 04:37:58;;;;;;;48.88;21.23;;;;;;;;;;5100986;28;20052;-66
2022/01/27 04:40:30;;;;;;;46.03;19.45;;;;;;;;;;5095617;28;20051;-66
2022/01/27 04:43:07;;;;;;;47.60;21.92;;;;;;;;;;5095006;28;20075;-66
2022/01/27 04:45:46;;;;;;;45.40;21.42;;;;;;;;;;5094429;28;20489;-66
2022/01/27 04:48:16;;;;;;;43.83;20.75;;;;;;;;;;5103055;28;20080;-66
2022/01/27 04:50:42;;;;;;;38.05;17.55;;;;;;;;;;5106824;28;20408;-66
2022/01/27 04:53:15;;;;;;;44.10;20.38;;;;;;;;;;5103426;28;20048;-66
2022/01/27 04:55:41;;;;;;;46.22;21.08;;;;;;;;;;5094233;28;20055;-66
2022/01/27 04:58:18;;;;;;;44.50;20.65;;;;;;;;;;5094253;28;20050;-66
2022/01/27 05:00:44;;;;;;;43.38;21.63;;;;;;;;;;5101944;28;20123;-66
2022/01/27 05:03:17;;;;;;;43.50;20.02;;;;;;;;;;5090100;28;20040;-66
2022/01/27 05:05:43;;;;;;;45.75;21.52;;;;;;;;;;5092683;28;20090;-66
2022/01/27 05:08:16;;;;;;;42.30;21.13;;;;;;;;;;5092425;28;20075;-66
2022/01/27 05:10:42;;;;;;;44.97;18.77;;;;;;;;;;5108667;28;20047;-66
2022/01/27 05:13:12;;;;;;;42.95;20.42;;;;;;;;;;5113819;28;20043;-66
2022/01/27 05:15:44;;;;;;;41.50;18.63;;;;;;;;;;5112083;28;20048;-66
2022/01/27 05:18:10;;;;;;;40.33;18.17;;;;;;;;;;5103267;28;20101;-66
2022/01/27 05:20:36;;;;;;;42.25;19.00;;;;;;;;;;5099653;28;20043;-66
2022/01/27 05:23:02;;;;;;;44.50;20.15;;;;;;;;;;5108843;28;20036;-66
2022/01/27 05:25:28;;;;;;;44.50;20.58;;;;;;;;;;5113971;28;20051;-66
2022/01/27 05:27:54;;;;;;;45.20;19.92;;;;;;;;;;5103432;28;20039;-66
2022/01/27 05:30:20;;;;;;;45.53;20.88;;;;;;;;;;5111478;28;20039;-68
2022/01/27 05:32:46;;;;;;;35.42;17.73;;;;;;;;;;5098994;28;20040;-67
2022/01/27 05:35:12;;;;;;;48.30;20.55;;;;;;;;;;5092863;28;20036;-66
2022/01/27 05:37:38;;;;;;;43.90;18.42;;;;;;;;;;5100815;28;20027;-66
2022/01/27 05:40:05;;;;;;;46.90;20.27;;;;;;;;;;5107061;28;20032;-67
2022/01/27 05:42:31;;;;;;;40.88;19.65;;;;;;;;;;5093226;28;20513;-66
2022/01/27 05:44:56;;;;;;;41.33;18.58;;;;;;;;;;5094279;28;20036;-66
2022/01/27 05:47:22;;;;;;;44.10;19.30;;;;;;;;;;5098447;28;20069;-67
2022/01/27 05:49:48;;;;;;;45.80;19.90;;;;;;;;;;5113792;28;20493;-67
2022/01/27 05:52:14;;;;;;;44.55;20.30;;;;;;;;;;5104522;28;20122;-67
2022/01/27 05:54:42;;;;;;;39.15;20.20;;;;;;;;;;5093019;28;20295;-67
2022/01/27 05:57:08;;;;;;;39.13;15.20;;;;;;;;;;5097623;28;20043;-67
2022/01/27 05:59:34;;;;;;;43.05;20.25;;;;;;;;;;5110684;28;20040;-66
2022/01/27 06:02:00;;;;;;;44.90;19.48;;;;;;;;;;5104862;28;20043;-66
2022/01/27 06:04:26;;;;;;;45.00;19.88;;;;;;;;;;5098279;28;20084;-66
2022/01/27 06:06:53;;;;;;;45.55;19.50;;;;;;;;;;5092534;28;20454;-65
2022/01/27 06:09:19;;;;;;;43.78;19.27;;;;;;;;;;5093002;28;20101;-66
2022/01/27 06:11:45;;;;;;;44.50;19.05;;;;;;;;;;5099426;28;20039;-66
2022/01/27 06:14:11;;;;;;;42.92;19.17;;;;;;;;;;5110061;28;20047;-66
2022/01/27 06:16:37;;;;;;;44.75;19.80;;;;;;;;;;5113259;28;20039;-66
2022/01/27 06:19:06;;;;;;;38.45;18.27;;;;;;;;;;5099674;28;20125;-67
2022/01/27 06:21:34;;;;;;;52.40;21.77;;;;;;;;;;5111834;28;20070;-66
2022/01/27 06:24:00;;;;;;;51.95;21.35;;;;;;;;;;5096957;27;20413;-66
2022/01/27 06:26:29;;;;;;;54.63;21.27;;;;;;;;;;5092107;28;20118;-65
2022/01/27 06:28:55;;;;;;;47.63;20.52;;;;;;;;;;5092715;28;20093;-66
2022/01/27 06:31:21;;;;;;;48.00;18.73;;;;;;;;;;5092516;28;20044;-66
2022/01/27 06:33:47;;;;;;;50.35;20.83;;;;;;;;;;5105735;28;20040;-65
2022/01/27 06:36:13;;;;;;;42.67;19.52;;;;;;;;;;5110237;28;20089;-66
2022/01/27 06:38:39;;;;;;;53.85;20.23;;;;;;;;;;5101228;28;20036;-65
2022/01/27 06:41:05;;;;;;;48.08;20.23;;;;;;;;;;5091519;28;20036;-66
2022/01/27 06:43:31;;;;;;;49.13;20.58;;;;;;;;;;5108259;28;20047;-66
2022/01/27 06:45:57;;;;;;;61.78;22.40;;;;;;;;;;5111006;28;20039;-66
2022/01/27 06:48:23;;;;;;;57.03;20.70;;;;;;;;;;5096512;28;20110;-66
2022/01/27 06:50:54;;;;;;;48.83;20.67;;;;;;;;;;5094250;28;20040;-67
2022/01/27 06:53:20;;;;;;;56.58;23.30;;;;;;;;;;5100784;28;20110;-66
2022/01/27 06:55:46;;;;;;;47.85;20.02;;;;;;;;;;5109330;28;20168;-66
2022/01/27 06:58:12;;;;;;;50.15;22.15;;;;;;;;;;5091388;28;20498;-66
2022/01/27 07:00:38;;;;;;;52.80;21.80;;;;;;;;;;5087444;28;20079;-66
2022/01/27 07:03:04;;;;;;;53.53;21.20;;;;;;;;;;5083566;28;20036;-66
2022/01/27 07:05:32;;;;;;;45.78;18.73;;;;;;;;;;5087231;28;20035;-66
2022/01/27 07:07:58;;;;;;;42.63;18.80;;;;;;;;;;5091672;28;20070;-66
2022/01/27 07:10:24;;;;;;;46.05;19.95;;;;;;;;;;5083079;28;20130;-66
2022/01/27 07:12:50;;;;;;;52.75;21.58;;;;;;;;;;5090625;28;20075;-66
2022/01/27 07:15:16;;;;;;;45.30;19.52;;;;;;;;;;5091210;28;20093;-65
2022/01/27 07:17:42;;;;;;;47.13;18.85;;;;;;;;;;5090723;28;20036;-66
2022/01/27 07:20:09;;;;;;;39.97;16.92;;;;;;;;;;5091321;28;20033;-65
2022/01/27 07:22:35;;;;;;;45.78;19.45;;;;;;;;;;5089991;28;20135;-65
2022/01/27 07:25:02;;;;;;;49.17;20.23;;;;;;;;;;5093970;28;20060;-65
2022/01/27 07:27:30;;;;;;;43.53;19.27;;;;;;;;;;5092411;28;20123;-66
2022/01/27 07:29:56;;;;;;;50.78;18.50;;;;;;;;;;5097377;28;20043;-65
2022/01/27 07:32:22;;;;;;;45.45;19.58;;;;;;;;;;5097955;28;20143;-65
2022/01/27 07:34:48;;;;;;;45.60;19.08;;;;;;;;;;5098225;28;20046;-65
2022/01/27 07:37:14;;;;;;;47.90;18.15;;;;;;;;;;5097667;28;20069;-65
2022/01/27 07:39:40;;;;;;;45.95;19.10;;;;;;;;;;5105464;22;20041;-70
2022/01/27 07:42:06;;;;;;;40.20;16.60;;;;;;;;;;5076356;28;20032;-69
2022/01/27 07:44:32;;;;;;;32.83;14.63;;;;;;;;;;5076069;28;20052;-70
2022/01/27 07:46:58;;;;;;;40.22;17.63;;;;;;;;;;5077296;28;20036;-69
2022/01/27 07:49:24;;;;;;;38.47;15.50;;;;;;;;;;5077165;28;20055;-69
2022/01/27 07:51:50;;;;;;;40.95;15.93;;;;;;;;;;5077465;28;20033;-69
2022/01/27 07:54:17;;;;;;;35.35;15.25;;;;;;;;;;5073046;28;20028;-69
2022/01/27 07:56:43;;;;;;;31.25;13.88;;;;;;;;;;5065293;28;20698;-70
2022/01/27 07:59:09;;;;;;;33.38;13.45;;;;;;;;;;5076664;28;20033;-69
2022/01/27 08:01:35;;;;;;;32.13;12.98;;;;;;;;;;5076386;28;20082;-69
2022/01/27 08:04:01;;;;;;;28.52;12.02;;;;;;;;;;5075416;28;20033;-70
2022/01/27 08:06:27;;;;;;;26.40;12.32;;;;;;;;;;5076618;28;20502;-69
2022/01/27 08:08:53;;;;;;;26.60;12.55;;;;;;;;;;5074156;28;20127;-69
2022/01/27 08:11:19;;;;;;;28.02;12.93;;;;;;;;;;5075737;28;20425;-70
2022/01/27 08:13:45;;;;;;;27.77;13.65;;;;;;;;;;5075834;28;20048;-69
2022/01/27 08:16:11;;;;;;;29.27;13.82;;;;;;;;;;5076520;28;20555;-69
2022/01/27 08:18:37;;;;;;;29.83;13.82;;;;;;;;;;5076910;28;20036;-69
2022/01/27 08:21:03;;;;;;;33.72;14.93;;;;;;;;;;5073241;28;20718;-69
2022/01/27 08:23:30;;;;;;;34.55;14.85;;;;;;;;;;5076081;28;20032;-69
2022/01/27 08:26:26;;;;;;;32.42;14.48;;;;;;;;;;5069259;28;20041;-69
2022/01/27 08:28:51;;;;;;;32.40;14.90;;;;;;;;;;5077443;28;20047;-69
2022/01/27 08:31:18;;;;;;;37.38;15.50;;;;;;;;;;5077046;28;20044;-69
2022/01/27 08:33:44;;;;;;;35.95;16.38;;;;;;;;;;5077025;28;20086;-69
2022/01/27 08:36:10;;;;;;;40.35;17.10;;;;;;;;;;5072989;28;20036;-69
2022/01/27 08:38:41;;;;;;;47.60;17.92;;;;;;;;;;5072784;28;20033;-69
2022/01/27 08:41:07;;;;;;;38.22;16.67;;;;;;;;;;5071248;28;20032;-69
2022/01/27 08:43:33;;;;;;;36.28;15.23;;;;;;;;;;5071720;28;20048;-69
2022/01/27 08:46:00;;;;;;;46.28;18.90;;;;;;;;;;5070847;28;20045;-69
2022/01/27 08:48:28;;;;;;;42.22;17.55;;;;;;;;;;5072091;28;20182;-69
2022/01/27 08:51:01;;;;;;;48.30;17.35;;;;;;;;;;5070097;28;20403;-69
2022/01/27 08:53:29;;;;;;;49.45;18.60;;;;;;;;;;5072711;28;20091;-68
2022/01/27 08:55:55;;;;;;;44.25;16.38;;;;;;;;;;5068334;28;20033;-68
2022/01/27 08:58:23;;;;;;;57.60;18.63;;;;;;;;;;5067308;28;20041;-68
2022/01/27 09:00:49;;;;;;;51.15;18.80;;;;;;;;;;5070373;28;20051;-68
2022/01/27 09:03:15;;;;;;;53.53;17.75;;;;;;;;;;5071386;28;20025;-68
2022/01/27 09:05:41;;;;;;;49.95;18.00;;;;;;;;;;5063603;28;20036;-68
2022/01/27 09:08:07;;;;;;;50.80;18.17;;;;;;;;;;5065351;28;20470;-68
2022/01/27 09:10:33;;;;;;;33.85;15.75;;;;;;;;;;5072869;28;20064;-69
2022/01/27 09:13:03;;;;;;;45.30;17.00;;;;;;;;;;5073356;28;20083;-69
2022/01/27 09:15:30;;;;;;;49.72;16.30;;;;;;;;;;5071321;28;20094;-69
2022/01/27 09:17:58;;;;;;;44.83;15.40;;;;;;;;;;5071865;28;20490;-69
2022/01/27 09:20:24;;;;;;;41.67;14.10;;;;;;;;;;5073253;28;20047;-68
2022/01/27 09:22:52;;;;;;;45.92;14.85;;;;;;;;;;5071300;28;20091;-68
2022/01/27 09:25:23;;;;;;;41.60;14.45;;;;;;;;;;5065951;28;20040;-69
2022/01/27 09:27:49;;;;;;;42.67;14.25;;;;;;;;;;5068120;28;20085;-69
2022/01/27 09:30:17;;;;;;;35.63;13.38;;;;;;;;;;5070683;28;20101;-68
2022/01/27 09:32:43;;;;;;;38.92;14.02;;;;;;;;;;5071288;28;20040;-69
2022/01/27 09:35:09;;;;;;;39.75;13.02;;;;;;;;;;5072460;28;20552;-69
2022/01/27 09:37:35;;;;;;;37.83;11.38;;;;;;;;;;5072570;28;20040;-69
2022/01/27 09:40:01;;;;;;;33.95;12.75;;;;;;;;;;5072434;28;20036;-69
2022/01/27 09:42:31;;;;;;;34.47;13.32;;;;;;;;;;5072227;28;20075;-69
2022/01/27 09:44:59;;;;;;;35.63;12.07;;;;;;;;;;5069882;28;20040;-70
2022/01/27 09:47:29;;;;;;;28.33;10.13;;;;;;;;;;5066055;28;20048;-71
2022/01/27 09:50:06;;;;;;;39.67;12.30;;;;;;;;;;5067019;28;20498;-70
2022/01/27 09:52:32;;;;;;;30.92;10.88;;;;;;;;;;5069047;28;20044;-70
2022/01/27 09:54:58;;;;;;;27.98;10.95;;;;;;;;;;5071105;28;20128;-71
2022/01/27 09:57:24;;;;;;;35.35;11.73;;;;;;;;;;5069997;28;20036;-70
2022/01/27 09:59:50;;;;;;;28.77;10.57;;;;;;;;;;5069352;28;20043;-70
2022/01/27 10:02:18;;;;;;;24.98;10.60;;;;;;;;;;5068511;28;20028;-68
2022/01/27 10:04:57;;;;;;;29.85;9.90;;;;;;;;;;5071711;28;20048;-69
2022/01/27 10:07:43;;;;;;;33.78;10.38;;;;;;;;;;5072365;28;20417;-69
2022/01/27 10:10:12;;;;;;;31.02;10.10;;;;;;;;;;5056841;28;20036;-69
2022/01/27 10:12:41;;;;;;;25.17;8.32;;;;;;;;;;5071482;28;20049;-70
2022/01/27 10:15:12;;;;;;;23.58;8.88;;;;;;;;;;5072266;28;20032;-69
2022/01/27 10:17:40;;;;;;;25.83;9.05;;;;;;;;;;5071121;28;20498;-69
2022/01/27 10:20:19;;;;;;;26.77;9.35;;;;;;;;;;5072665;28;20067;-69
2022/01/27 10:23:03;;;;;;;28.45;8.90;;;;;;;;;;5071228;28;20529;-69
2022/01/27 10:25:45;;;;;;;29.17;9.00;;;;;;;;;;5071963;28;20033;-69
2022/01/27 10:28:22;;;;;;;25.75;9.10;;;;;;;;;;5071631;28;20490;-69
2022/01/27 10:30:53;;;;;;;34.97;9.50;;;;;;;;;;5072385;28;20048;-69
2022/01/27 10:33:19;;;;;;;26.30;9.20;;;;;;;;;;5070938;28;20036;-68
2022/01/27 10:35:45;;;;;;;25.42;8.68;;;;;;;;;;5070578;28;20044;-69
2022/01/27 10:38:14;;;;;;;27.42;9.38;;;;;;;;;;5070344;28;20064;-68
2022/01/27 10:40:44;;;;;;;24.80;8.75;;;;;;;;;;5063871;28;20069;-68
2022/01/27 10:43:12;;;;;;;28.27;8.40;;;;;;;;;;5071131;28;20037;-68
2022/01/27 10:45:42;;;;;;;30.75;9.18;;;;;;;;;;5071718;28;20033;-69
2022/01/27 10:48:08;;;;;;;26.92;9.13;;;;;;;;;;5071756;28;20050;-69
2022/01/27 10:50:49;;;;;;;22.42;8.27;;;;;;;;;;5071137;28;20146;-69
2022/01/27 10:53:17;;;;;;;27.23;9.05;;;;;;;;;;5070729;28;20051;-69
2022/01/27 10:55:43;;;;;;;26.92;8.45;;;;;;;;;;5070391;28;20452;-69
2022/01/27 10:58:26;;;;;;;27.63;7.95;;;;;;;;;;5071818;28;20410;-69
2022/01/27 11:00:59;;;;;;;23.45;8.13;;;;;;;;;;5070414;28;20040;-68
2022/01/27 11:03:25;;;;;;;23.08;8.38;;;;;;;;;;5069796;28;20037;-69
2022/01/27 11:05:51;;;;;;;25.35;7.90;;;;;;;;;;5071696;28;20508;-69
2022/01/27 11:08:21;;;;;;;26.05;8.02;;;;;;;;;;5071815;28;20387;-68
2022/01/27 11:10:49;;;;;;;24.88;8.23;;;;;;;;;;5070392;28;20044;-68
2022/01/27 11:13:17;;;;;;;21.15;7.88;;;;;;;;;;5070843;28;20036;-69
2022/01/27 11:15:45;;;;;;;21.35;7.68;;;;;;;;;;5070113;28;20047;-68
2022/01/27 11:18:11;;;;;;;24.35;6.85;;;;;;;;;;5071698;28;20044;-69
2022/01/27 11:26:10;;;;;;;21.45;6.55;;;;;;;;;;5071528;28;20048;-69
2022/01/27 11:28:38;;;;;;;21.58;6.72;;;;;;;;;;5071707;28;20047;-69
2022/01/27 11:31:07;;;;;;;20.52;7.38;;;;;;;;;;5071078;28;20028;-69
2022/01/27 11:33:34;;;;;;;19.05;6.60;;;;;;;;;;5069624;28;20037;-69
2022/01/27 11:36:07;;;;;;;18.90;6.32;;;;;;;;;;5068169;28;20402;-69
2022/01/27 11:38:33;;;;;;;23.08;6.05;;;;;;;;;;5068303;28;20048;-70
2022/01/27 11:40:59;;;;;;;13.68;4.93;;;;;;;;;;5070432;28;20052;-69
2022/01/27 11:43:35;;;;;;;13.88;5.57;;;;;;;;;;5069063;28;20040;-69
2022/01/27 11:46:12;;;;;;;15.30;5.10;;;;;;;;;;5069978;28;20086;-69
2022/01/27 11:48:38;;;;;;;18.23;5.10;;;;;;;;;;5069584;28;20048;-70
2022/01/27 11:51:06;;;;;;;18.30;4.82;;;;;;;;;;5070679;28;20039;-70
2022/01/27 11:53:39;;;;;;;18.38;4.95;;;;;;;;;;5070333;28;20111;-70
2022/01/27 11:56:33;;;;;;;16.75;4.78;;;;;;;;;;5069801;28;20036;-69
2022/01/27 11:59:03;;;;;;;23.60;5.00;;;;;;;;;;5063415;28;20059;-69
2022/01/27 12:01:30;;;;;;;19.80;5.03;;;;;;;;;;5070276;28;20086;-69
2022/01/27 12:04:13;;;;;;;12.80;4.30;;;;;;;;;;5070533;28;20430;-69
2022/01/27 12:06:38;;;;;;;14.55;4.05;;;;;;;;;;5069337;28;20044;-69
2022/01/27 12:09:20;;;;;;;17.45;4.35;;;;;;;;;;5069969;28;20041;-69
2022/01/27 12:11:51;;;;;;;15.50;3.67;;;;;;;;;;5073159;28;20041;-69
2022/01/27 12:14:22;;;;;;;16.73;4.25;;;;;;;;;;5072174;28;20040;-70
2022/01/27 12:17:06;;;;;;;16.65;3.85;;;;;;;;;;5071554;28;20096;-70
2022/01/27 12:19:52;;;;;;;19.13;4.05;;;;;;;;;;5064181;28;20056;-70
2022/01/27 12:22:19;;;;;;;18.25;3.88;;;;;;;;;;5071042;28;20405;-71
2022/01/27 12:24:51;;;;;;;18.05;3.90;;;;;;;;;;5068682;28;20059;-71
2022/01/27 12:27:18;;;;;;;15.70;3.45;;;;;;;;;;5068540;28;20076;-71
2022/01/27 12:29:51;;;;;;;13.77;3.88;;;;;;;;;;5070804;28;20073;-72
2022/01/27 12:32:17;;;;;;;12.80;3.30;;;;;;;;;;5068360;28;20040;-71
2022/01/27 12:34:54;;;;;;;15.52;3.25;;;;;;;;;;5067172;28;20043;-71
2022/01/27 12:37:22;;;;;;;18.13;4.00;;;;;;;;;;5072876;28;20172;-71
2022/01/27 12:39:55;;;;;;;15.00;3.53;;;;;;;;;;5075830;28;20037;-72
2022/01/27 12:42:24;;;;;;;13.20;3.83;;;;;;;;;;5072763;28;20424;-73
2022/01/27 12:44:58;;;;;;;13.93;3.85;;;;;;;;;;5071114;28;20044;-72
2022/01/27 12:47:24;;;;;;;17.95;3.55;;;;;;;;;;5072318;28;20167;-72
2022/01/27 12:50:01;;;;;;;16.45;3.90;;;;;;;;;;5072778;28;20114;-72
2022/01/27 12:52:29;;;;;;;17.17;3.50;;;;;;;;;;5073250;28;20125;-72
2022/01/27 12:55:05;;;;;;;17.52;3.53;;;;;;;;;;5071747;28;20036;-72
2022/01/27 12:57:32;;;;;;;14.63;3.53;;;;;;;;;;5058402;28;20045;-72
2022/01/27 12:59:59;;;;;;;19.27;3.85;;;;;;;;;;5067008;28;20514;-72
2022/01/27 13:02:25;;;;;;;13.90;3.38;;;;;;;;;;5072281;28;20066;-72
2022/01/27 13:04:53;;;;;;;15.48;3.10;;;;;;;;;;5072121;28;20405;-72
2022/01/27 13:07:20;;;;;;;13.95;3.45;;;;;;;;;;5072002;28;20076;-72
2022/01/27 13:10:04;;;;;;;16.33;3.70;;;;;;;;;;5068596;28;20051;-72
2022/01/27 13:12:36;;;;;;;15.98;3.60;;;;;;;;;;5071442;28;20467;-72
2022/01/27 13:15:13;;;;;;;20.58;3.58;;;;;;;;;;5075968;28;20128;-72
2022/01/27 13:17:50;;;;;;;11.75;3.22;;;;;;;;;;5053583;28;20041;-73
2022/01/27 13:20:28;;;;;;;12.15;3.20;;;;;;;;;;5068972;28;20099;-72
2022/01/27 13:23:07;;;;;;;16.75;3.13;;;;;;;;;;5070806;28;20512;-73
2022/01/27 13:25:37;;;;;;;20.95;3.65;;;;;;;;;;5071541;28;20041;-73
2022/01/27 13:28:07;;;;;;;13.63;3.05;;;;;;;;;;5068103;28;20052;-73
2022/01/27 13:30:33;;;;;;;23.95;3.20;;;;;;;;;;5071978;28;20442;-73
2022/01/27 13:32:59;;;;;;;9.77;2.65;;;;;;;;;;5072635;28;20041;-72
2022/01/27 13:35:25;;;;;;;25.10;3.33;;;;;;;;;;5071556;28;20490;-73
2022/01/27 13:37:57;;;;;;;13.68;2.90;;;;;;;;;;5071612;28;20068;-72
2022/01/27 13:43:11;;;;;;;15.40;3.08;;;;;;;;;;5098274;28;20041;-66
2022/01/27 13:45:37;;;;;;;13.02;3.25;;;;;;;;;;5101802;28;20111;-66
2022/01/27 13:48:20;;;;;;;12.13;2.97;;;;;;;;;;5111083;28;20058;-65
2022/01/27 13:50:58;;;;;;;20.05;3.50;;;;;;;;;;5078811;28;20516;-66
2022/01/27 13:53:24;;;;;;;16.55;3.00;;;;;;;;;;5091003;28;20039;-65
2022/01/27 13:56:01;;;;;;;15.65;2.90;;;;;;;;;;5090385;28;20076;-66
2022/01/27 13:58:28;;;;;;;15.05;2.95;;;;;;;;;;5093341;28;20044;-66
2022/01/27 14:01:09;;;;;;;12.63;2.25;;;;;;;;;;5083831;28;20554;-66
2022/01/27 14:03:41;;;;;;;16.77;2.93;;;;;;;;;;5079398;28;20126;-66
2022/01/27 14:06:07;;;;;;;10.40;2.47;;;;;;;;;;5090452;28;20282;-66
2022/01/27 14:08:37;;;;;;;15.13;3.30;;;;;;;;;;5087236;28;20532;-65
2022/01/27 14:11:03;;;;;;;23.98;3.08;;;;;;;;;;5079664;28;20036;-65
2022/01/27 14:13:29;;;;;;;20.45;3.03;;;;;;;;;;5085501;28;20044;-65
2022/01/27 14:15:55;;;;;;;16.08;2.97;;;;;;;;;;5082253;28;20059;-66
2022/01/27 14:18:39;;;;;;;18.58;2.85;;;;;;;;;;5075002;28;20036;-66
2022/01/27 14:21:06;;;;;;;16.35;2.67;;;;;;;;;;5073950;28;20555;-66
2022/01/27 14:23:46;;;;;;;20.90;3.33;;;;;;;;;;5077505;28;20123;-66
2022/01/27 14:26:23;;;;;;;12.80;2.50;;;;;;;;;;5080645;28;20043;-66
2022/01/27 14:28:50;;;;;;;11.90;2.65;;;;;;;;;;5083675;28;20044;-66
2022/01/27 14:31:16;;;;;;;10.13;2.67;;;;;;;;;;5081207;28;20032;-66
2022/01/27 14:33:42;;;;;;;13.20;2.47;;;;;;;;;;5091328;28;20064;-66
2022/01/27 14:36:08;;;;;;;20.55;3.50;;;;;;;;;;5089647;28;20052;-66
2022/01/27 14:38:34;;;;;;;12.65;3.38;;;;;;;;;;5091369;28;20047;-66
2022/01/27 14:41:01;;;;;;;17.40;3.28;;;;;;;;;;5083440;28;20033;-66
2022/01/27 14:43:29;;;;;;;18.25;3.08;;;;;;;;;;5083173;28;20374;-66
2022/01/27 14:45:55;;;;;;;22.75;2.90;;;;;;;;;;5082449;28;20074;-66
2022/01/27 14:48:21;;;;;;;19.00;3.15;;;;;;;;;;5085866;28;20036;-66
2022/01/27 14:50:48;;;;;;;21.38;3.47;;;;;;;;;;5082922;28;20040;-66
2022/01/27 14:53:14;;;;;;;16.40;2.63;;;;;;;;;;5086093;28;20086;-66
2022/01/27 14:55:40;;;;;;;24.52;4.03;;;;;;;;;;5080332;28;20070;-66
2022/01/27 14:58:06;;;;;;;20.25;3.22;;;;;;;;;;5081770;28;20067;-67
2022/01/27 15:00:32;;;;;;;18.55;3.17;;;;;;;;;;5078196;28;20036;-67
2022/01/27 15:02:58;;;;;;;18.48;3.60;;;;;;;;;;5082432;28;20040;-66
2022/01/27 15:05:24;;;;;;;17.25;2.97;;;;;;;;;;5091814;28;20149;-69
2022/01/27 15:07:50;;;;;;;12.65;2.58;;;;;;;;;;5090168;28;20036;-70